Time;durP1;ratioP1;P1;durP2;ratioP2;P2;SDS_P1;SDS_P2;PMS_P1;PMS_P2;Temp;Humidity;BMP_temperature;BMP_pressure;BME280_temperature;BME280_humidity;BME280_pressure;Samples;Min_cycle;Max_cycle;Signal;HPM_P1;HPM_P2
2023/03/13 00:02:00;;;;;;;27.15;6.20;;;7.80;99.90;;;;;;6249849;22;20102;-79
2023/03/13 00:04:26;;;;;;;28.63;6.15;;;7.90;99.90;;;;;;6277078;22;20019;-79
2023/03/13 00:06:51;;;;;;;35.63;6.88;;;7.90;99.90;;;;;;6249671;22;20023;-79
2023/03/13 00:09:22;;;;;;;33.50;7.72;;;7.90;99.90;;;;;;6249697;22;20347;-79
2023/03/13 00:11:48;;;;;;;36.47;6.75;;;8.00;99.90;;;;;;6276857;22;20099;-80
2023/03/13 00:14:13;;;;;;;42.10;7.18;;;7.90;99.90;;;;;;6249620;22;20047;-80
2023/03/13 00:16:41;;;;;;;30.60;6.05;;;8.00;99.90;;;;;;6276509;22;20386;-80
2023/03/13 00:19:08;;;;;;;33.10;6.78;;;8.00;99.90;;;;;;6249643;22;20019;-80
2023/03/13 00:21:36;;;;;;;33.22;6.28;;;8.00;99.90;;;;;;6277098;22;20015;-80
2023/03/13 00:24:03;;;;;;;41.13;8.10;;;8.00;99.90;;;;;;6249617;22;20020;-80
2023/03/13 00:26:29;;;;;;;28.17;6.50;;;8.00;99.90;;;;;;6277095;22;20031;-80
2023/03/13 00:28:55;;;;;;;40.53;7.38;;;8.10;99.90;;;;;;6251246;22;20086;-80
2023/03/13 00:31:23;;;;;;;35.00;7.65;;;8.10;99.90;;;;;;6251505;22;20051;-80
2023/03/13 00:33:52;;;;;;;36.42;6.93;;;8.10;99.90;;;;;;6278568;22;20026;-80
2023/03/13 00:36:19;;;;;;;30.15;7.50;;;8.10;99.90;;;;;;6251415;22;20016;-80
2023/03/13 00:38:45;;;;;;;28.17;8.23;;;8.10;99.90;;;;;;6251219;22;20074;-80
2023/03/13 00:41:14;;;;;;;29.88;7.18;;;8.10;99.90;;;;;;6251487;22;20086;-80
2023/03/13 00:43:44;;;;;;;37.75;8.32;;;8.30;99.90;;;;;;6251423;22;20023;-80
2023/03/13 00:46:11;;;;;;;39.30;7.95;;;8.20;99.90;;;;;;6251351;22;20020;-79
2023/03/13 00:48:37;;;;;;;47.85;12.50;;;8.30;99.90;;;;;;6251297;22;20019;-80
2023/03/13 00:51:04;;;;;;;35.38;8.20;;;8.30;99.90;;;;;;6278277;22;20015;-80
2023/03/13 00:53:30;;;;;;;38.15;9.63;;;8.40;99.90;;;;;;6278424;22;20518;-80
2023/03/13 00:56:02;;;;;;;36.80;9.07;;;8.30;99.90;;;;;;6251311;22;20057;-80
2023/03/13 00:58:30;;;;;;;40.88;7.97;;;8.40;99.90;;;;;;6251040;22;20077;-80
2023/03/13 01:00:56;;;;;;;33.33;7.30;;;8.40;99.90;;;;;;6278693;22;20042;-80
2023/03/13 01:03:26;;;;;;;25.63;6.95;;;8.40;99.90;;;;;;6278216;22;20016;-80
2023/03/13 01:06:00;;;;;;;36.92;7.10;;;8.30;99.90;;;;;;6251236;22;20016;-80
2023/03/13 01:08:27;;;;;;;35.70;8.75;;;8.30;99.90;;;;;;6278021;22;20026;-80
2023/03/13 01:11:08;;;;;;;36.45;8.27;;;8.40;99.90;;;;;;6250998;22;20528;-80
2023/03/13 01:13:34;;;;;;;30.80;8.52;;;8.30;99.90;;;;;;6251097;22;20012;-80
2023/03/13 01:16:18;;;;;;;34.17;8.30;;;8.30;99.90;;;;;;6251150;22;20499;-80
2023/03/13 01:18:46;;;;;;;40.03;8.57;;;8.30;99.90;;;;;;6250838;22;20479;-80
2023/03/13 01:21:13;;;;;;;37.40;8.65;;;8.30;99.90;;;;;;6250710;22;20011;-80
2023/03/13 01:23:39;;;;;;;34.00;7.78;;;8.30;99.90;;;;;;6250877;22;20022;-80
2023/03/13 01:26:06;;;;;;;40.63;9.10;;;8.30;99.90;;;;;;6278115;22;20016;-80
2023/03/13 01:28:32;;;;;;;37.33;8.32;;;8.30;99.90;;;;;;6250989;22;20450;-80
2023/03/13 01:30:59;;;;;;;33.88;8.93;;;8.20;99.90;;;;;;6250971;22;20051;-80
2023/03/13 01:33:25;;;;;;;34.58;8.68;;;8.30;99.90;;;;;;6250911;22;20019;-80
2023/03/13 01:35:50;;;;;;;35.90;8.02;;;8.20;99.90;;;;;;6250817;22;20087;-80
2023/03/13 01:38:16;;;;;;;37.75;8.82;;;8.20;99.90;;;;;;6250604;22;20382;-80
2023/03/13 01:40:45;;;;;;;35.92;8.50;;;8.30;99.90;;;;;;6250595;22;20389;-80
2023/03/13 01:43:20;;;;;;;38.42;8.05;;;8.30;99.90;;;;;;6277969;22;20020;-80
2023/03/13 01:46:18;;;;;;;31.30;8.00;;;8.30;99.90;;;;;;6278146;22;20012;-80
2023/03/13 01:48:56;;;;;;;38.72;9.65;;;8.30;99.90;;;;;;6250759;22;20030;-80
2023/03/13 01:51:37;;;;;;;42.35;9.07;;;8.30;99.90;;;;;;6278238;22;20020;-80
2023/03/13 01:54:20;;;;;;;28.73;8.82;;;8.30;99.90;;;;;;6250779;22;20317;-80
2023/03/13 01:57:03;;;;;;;31.42;8.43;;;8.40;99.90;;;;;;6250561;22;20496;-80
2023/03/13 01:59:39;;;;;;;36.35;8.70;;;8.40;99.90;;;;;;6278083;22;20016;-80
2023/03/13 02:02:05;;;;;;;34.22;7.85;;;8.40;99.90;;;;;;6250699;22;20023;-80
2023/03/13 02:04:37;;;;;;;46.05;10.35;;;8.40;99.90;;;;;;6250421;22;20016;-81
2023/03/13 02:07:08;;;;;;;32.30;8.07;;;8.50;99.90;;;;;;6277530;22;20504;-81
2023/03/13 02:09:38;;;;;;;35.30;9.88;;;8.50;99.90;;;;;;6250923;22;20027;-81
2023/03/13 02:12:14;;;;;;;35.92;9.07;;;8.40;99.90;;;;;;6251164;22;20019;-81
2023/03/13 02:14:43;;;;;;;34.47;9.05;;;8.40;99.90;;;;;;6250456;22;20073;-81
2023/03/13 02:17:10;;;;;;;34.45;9.93;;;8.50;99.90;;;;;;6251142;22;20015;-81
2023/03/13 02:19:41;;;;;;;32.42;7.72;;;8.40;99.90;;;;;;6250444;22;20438;-82
2023/03/13 02:22:34;;;;;;;33.88;10.07;;;8.40;99.90;;;;;;6251546;22;20018;-81
2023/03/13 02:25:08;;;;;;;29.77;9.25;;;8.40;99.90;;;;;;6277589;22;20448;-82
2023/03/13 02:27:34;;;;;;;32.47;8.98;;;8.40;99.90;;;;;;6250433;22;20023;-83
2023/03/13 02:30:00;;;;;;;28.05;9.15;;;8.40;99.90;;;;;;6277405;22;20022;-83
2023/03/13 02:32:29;;;;;;;33.90;9.23;;;8.30;99.90;;;;;;6250399;22;20012;-83
2023/03/13 02:35:03;;;;;;;28.17;9.70;;;8.30;99.90;;;;;;6250646;22;20382;-83
2023/03/13 02:37:30;;;;;;;30.52;9.75;;;8.30;99.90;;;;;;6250269;22;20447;-83
2023/03/13 02:40:00;;;;;;;21.90;8.93;;;8.30;99.90;;;;;;6250210;22;20361;-83
2023/03/13 02:42:27;;;;;;;32.38;9.82;;;8.40;99.90;;;;;;6250289;22;20098;-83
2023/03/13 02:44:52;;;;;;;31.02;9.38;;;8.40;99.90;;;;;;6250215;22;20018;-83
2023/03/13 02:47:23;;;;;;;25.45;7.90;;;8.30;99.90;;;;;;6277149;22;20023;-83
2023/03/13 02:49:49;;;;;;;27.40;7.78;;;8.40;99.90;;;;;;6250194;22;20402;-83
2023/03/13 02:52:29;;;;;;;23.77;7.63;;;8.30;99.90;;;;;;6277682;22;20327;-82
2023/03/13 02:55:23;;;;;;;19.73;7.32;;;8.40;99.90;;;;;;6250122;22;20011;-83
2023/03/13 02:57:49;;;;;;;21.08;7.13;;;8.40;99.90;;;;;;6245242;22;20392;-83
2023/03/13 03:00:16;;;;;;;23.73;7.45;;;8.40;99.90;;;;;;6277362;22;20023;-83
2023/03/13 03:02:43;;;;;;;21.42;6.45;;;8.40;99.90;;;;;;6250065;22;20015;-82
2023/03/13 03:05:09;;;;;;;16.75;6.30;;;8.40;99.90;;;;;;6250365;22;20340;-83
2023/03/13 03:07:35;;;;;;;18.42;5.82;;;8.50;99.90;;;;;;6249905;22;20412;-83
2023/03/13 03:10:02;;;;;;;18.48;6.60;;;8.50;99.90;;;;;;6277423;22;20016;-83
2023/03/13 03:12:28;;;;;;;13.70;5.43;;;8.60;99.90;;;;;;6277168;22;20019;-83
2023/03/13 03:14:53;;;;;;;18.20;5.57;;;8.60;99.90;;;;;;6250318;22;20016;-83
2023/03/13 03:17:19;;;;;;;14.82;5.78;;;8.70;99.90;;;;;;6277002;22;20061;-83
2023/03/13 03:19:45;;;;;;;18.00;5.70;;;8.60;99.90;;;;;;6250263;22;20145;-83
2023/03/13 03:22:10;;;;;;;18.08;6.60;;;8.60;99.90;;;;;;6277021;22;20471;-83
2023/03/13 03:24:36;;;;;;;11.93;4.85;;;8.70;99.90;;;;;;6277377;22;20020;-83
2023/03/13 03:27:02;;;;;;;13.40;5.10;;;8.70;99.90;;;;;;6249793;22;20376;-83
2023/03/13 03:29:27;;;;;;;11.43;5.65;;;8.70;99.90;;;;;;6250358;22;20020;-83
2023/03/13 03:31:53;;;;;;;15.02;7.07;;;8.80;99.90;;;;;;6250007;22;20019;-82
2023/03/13 03:34:20;;;;;;;13.30;4.95;;;8.80;99.90;;;;;;6276913;22;20056;-82
2023/03/13 03:36:45;;;;;;;15.88;6.60;;;8.80;99.90;;;;;;6276822;22;20024;-82
2023/03/13 03:39:11;;;;;;;17.23;5.60;;;8.90;99.90;;;;;;6277303;22;20016;-83
2023/03/13 03:41:36;;;;;;;13.07;5.07;;;8.80;99.90;;;;;;6249824;22;20008;-84
2023/03/13 03:44:03;;;;;;;11.35;5.00;;;8.80;99.90;;;;;;6249807;22;20015;-83
2023/03/13 03:46:29;;;;;;;12.80;5.18;;;8.80;99.90;;;;;;6277220;22;20016;-82
2023/03/13 03:48:54;;;;;;;11.75;4.78;;;8.80;99.90;;;;;;6276949;22;20406;-82
2023/03/13 03:51:21;;;;;;;11.98;4.40;;;8.90;99.90;;;;;;6276885;22;20023;-82
2023/03/13 03:53:47;;;;;;;8.85;3.58;;;8.90;99.90;;;;;;6276797;22;20016;-82
2023/03/13 03:56:13;;;;;;;11.35;3.70;;;8.90;99.90;;;;;;6249941;22;20015;-82
2023/03/13 03:58:38;;;;;;;12.50;3.90;;;9.00;99.90;;;;;;6249618;22;20012;-81
2023/03/13 04:01:04;;;;;;;9.38;3.85;;;9.00;99.90;;;;;;6249760;22;20089;-81
2023/03/13 04:03:30;;;;;;;10.07;3.80;;;9.00;99.90;;;;;;6251380;22;20047;-81
2023/03/13 04:05:55;;;;;;;11.45;3.80;;;9.00;99.90;;;;;;6251721;22;20024;-81
2023/03/13 04:08:21;;;;;;;10.73;4.60;;;9.00;99.90;;;;;;6251508;22;20432;-81
2023/03/13 04:10:47;;;;;;;11.68;3.97;;;9.10;99.90;;;;;;6251753;22;20351;-81
2023/03/13 04:13:13;;;;;;;10.20;4.32;;;9.10;99.90;;;;;;6251654;22;20015;-81
2023/03/13 04:15:39;;;;;;;7.80;3.75;;;9.00;99.90;;;;;;6251742;22;20020;-81
2023/03/13 04:18:05;;;;;;;8.15;3.22;;;9.00;99.90;;;;;;6251509;22;20019;-81
2023/03/13 04:20:31;;;;;;;10.35;3.88;;;9.10;99.90;;;;;;6251535;22;20099;-81
2023/03/13 04:22:57;;;;;;;10.13;4.20;;;9.00;99.90;;;;;;6251638;22;20016;-81
2023/03/13 04:25:23;;;;;;;10.65;4.85;;;9.10;99.90;;;;;;6251651;22;20035;-81
2023/03/13 04:27:49;;;;;;;11.77;4.95;;;9.20;99.90;;;;;;6278790;22;20019;-81
2023/03/13 04:30:15;;;;;;;18.83;8.48;;;9.20;99.90;;;;;;6278997;22;20007;-81
2023/03/13 04:32:40;;;;;;;24.13;9.90;;;9.20;99.90;;;;;;6251600;22;20073;-81
2023/03/13 04:35:06;;;;;;;34.78;14.05;;;9.30;99.90;;;;;;6251426;22;20007;-81
2023/03/13 04:37:32;;;;;;;32.28;14.13;;;9.30;99.90;;;;;;6278826;22;20018;-81
2023/03/13 04:39:58;;;;;;;39.22;15.15;;;9.30;99.90;;;;;;6251477;22;20048;-81
2023/03/13 04:42:23;;;;;;;38.42;15.48;;;9.40;99.90;;;;;;6251474;22;20012;-81
2023/03/13 04:44:49;;;;;;;35.97;14.50;;;9.50;99.90;;;;;;6251480;22;20022;-81
2023/03/13 04:47:15;;;;;;;42.10;13.93;;;9.40;99.90;;;;;;6278630;22;20022;-81
2023/03/13 04:49:40;;;;;;;34.55;13.93;;;9.50;99.90;;;;;;6278765;22;20016;-81
2023/03/13 04:52:06;;;;;;;32.25;12.20;;;9.60;99.90;;;;;;6251404;22;20024;-81
2023/03/13 04:54:32;;;;;;;28.15;11.65;;;9.70;99.90;;;;;;6279024;22;20008;-81
2023/03/13 04:56:58;;;;;;;33.15;12.02;;;9.70;99.90;;;;;;6251129;22;20051;-81
2023/03/13 04:59:23;;;;;;;32.22;11.45;;;9.60;99.90;;;;;;6251304;22;20019;-81
2023/03/13 05:01:49;;;;;;;34.42;10.65;;;9.70;99.90;;;;;;6251296;22;20106;-81
2023/03/13 05:04:15;;;;;;;26.23;9.88;;;9.70;99.90;;;;;;6278366;22;20023;-81
2023/03/13 05:06:40;;;;;;;37.90;10.27;;;9.80;99.90;;;;;;6251097;22;20026;-81
2023/03/13 05:09:06;;;;;;;31.65;9.27;;;9.70;99.90;;;;;;6278083;22;20498;-81
2023/03/13 05:11:32;;;;;;;26.40;8.90;;;9.80;99.90;;;;;;6251051;22;20020;-81
2023/03/13 05:13:58;;;;;;;30.35;8.98;;;9.80;99.90;;;;;;6277912;22;20020;-81
2023/03/13 05:16:24;;;;;;;24.63;9.02;;;9.90;99.90;;;;;;6278490;22;20122;-81
2023/03/13 05:18:49;;;;;;;31.05;9.00;;;10.00;99.90;;;;;;6251028;22;20336;-81
2023/03/13 05:21:15;;;;;;;33.83;9.60;;;9.80;99.90;;;;;;6278536;22;20016;-81
2023/03/13 05:23:41;;;;;;;31.80;10.23;;;10.00;99.90;;;;;;6251089;22;20019;-81
2023/03/13 05:26:07;;;;;;;27.02;7.97;;;10.10;99.90;;;;;;6251039;22;20095;-81
2023/03/13 05:28:33;;;;;;;24.95;7.80;;;10.10;99.90;;;;;;6251042;22;20018;-81
2023/03/13 05:30:58;;;;;;;23.10;7.70;;;10.00;99.90;;;;;;6251077;22;20095;-80
2023/03/13 05:33:24;;;;;;;25.15;8.73;;;10.00;99.90;;;;;;6250987;22;20027;-80
2023/03/13 05:35:50;;;;;;;27.67;8.20;;;10.10;99.90;;;;;;6250884;22;20336;-80
2023/03/13 05:38:15;;;;;;;21.70;7.80;;;10.00;99.90;;;;;;6250720;22;20094;-80
2023/03/13 05:40:41;;;;;;;26.15;6.78;;;10.00;99.90;;;;;;6250887;22;20019;-81
2023/03/13 05:43:07;;;;;;;23.05;6.93;;;10.10;99.90;;;;;;6278275;22;20020;-81
2023/03/13 05:45:32;;;;;;;19.67;7.10;;;10.10;99.90;;;;;;6250890;22;20024;-81
2023/03/13 05:47:58;;;;;;;20.50;6.50;;;10.10;99.90;;;;;;6250787;22;20098;-81
2023/03/13 05:50:24;;;;;;;17.95;6.20;;;10.20;99.90;;;;;;6250805;22;20023;-80
2023/03/13 05:52:50;;;;;;;18.33;5.80;;;10.20;99.90;;;;;;6250758;22;20019;-81
2023/03/13 05:55:16;;;;;;;19.45;7.78;;;10.20;99.90;;;;;;6250625;22;20053;-80
2023/03/13 05:57:48;;;;;;;25.63;7.70;;;10.20;99.90;;;;;;6278041;22;20091;-81
2023/03/13 06:00:15;;;;;;;20.77;7.32;;;10.20;99.90;;;;;;6250693;22;20054;-81
2023/03/13 06:02:42;;;;;;;25.98;7.97;;;10.30;99.90;;;;;;6277949;22;20020;-81
2023/03/13 06:05:08;;;;;;;23.52;6.95;;;10.20;99.90;;;;;;6278004;22;20023;-81
2023/03/13 06:07:35;;;;;;;26.15;7.20;;;10.30;99.90;;;;;;6250240;22;20340;-81
2023/03/13 06:10:02;;;;;;;23.02;6.78;;;10.20;99.90;;;;;;6250454;22;20396;-81
2023/03/13 06:12:28;;;;;;;25.42;6.95;;;10.30;99.90;;;;;;6277306;22;20343;-81
2023/03/13 06:14:53;;;;;;;21.80;7.70;;;10.20;99.90;;;;;;6250381;22;20444;-81
2023/03/13 06:17:24;;;;;;;30.40;8.45;;;10.20;99.90;;;;;;6250265;22;20018;-81
2023/03/13 06:19:49;;;;;;;18.15;7.13;;;10.20;99.90;;;;;;6250086;22;20335;-81
2023/03/13 06:22:16;;;;;;;24.55;7.25;;;10.30;99.90;;;;;;6249970;22;20022;-81
2023/03/13 06:24:43;;;;;;;32.97;8.63;;;10.30;99.90;;;;;;6276473;22;20049;-81
2023/03/13 06:27:09;;;;;;;29.83;9.38;;;10.30;99.90;;;;;;6250348;22;20016;-82
2023/03/13 06:29:35;;;;;;;28.83;8.43;;;10.40;99.90;;;;;;6250262;22;20070;-82
2023/03/13 06:32:01;;;;;;;23.85;8.43;;;10.40;99.90;;;;;;6277434;22;20019;-82
2023/03/13 06:34:26;;;;;;;25.40;7.38;;;10.40;99.90;;;;;;6250314;22;20007;-81
2023/03/13 06:36:52;;;;;;;29.10;8.38;;;10.30;99.90;;;;;;6250220;22;20086;-82
2023/03/13 06:39:17;;;;;;;32.15;8.05;;;10.30;99.90;;;;;;6250051;22;20027;-82
2023/03/13 06:41:44;;;;;;;32.55;7.85;;;10.50;99.90;;;;;;6250261;22;20023;-81
2023/03/13 06:44:09;;;;;;;27.40;8.07;;;10.40;99.90;;;;;;6277531;22;20035;-81
2023/03/13 06:46:35;;;;;;;27.73;9.10;;;10.40;99.90;;;;;;6277866;22;20351;-81
2023/03/13 06:49:03;;;;;;;28.95;7.95;;;10.40;99.90;;;;;;6250168;22;20481;-81
2023/03/13 06:51:29;;;;;;;18.77;6.57;;;10.50;99.90;;;;;;6277157;22;20047;-81
2023/03/13 06:53:55;;;;;;;19.60;7.20;;;10.50;99.90;;;;;;6276993;22;20375;-81
2023/03/13 06:56:20;;;;;;;25.77;8.13;;;10.40;99.90;;;;;;6250058;22;20073;-81
2023/03/13 06:58:47;;;;;;;25.60;7.32;;;10.40;99.90;;;;;;6249809;22;20016;-81
2023/03/13 07:01:15;;;;;;;30.00;7.03;;;10.40;99.90;;;;;;6276997;22;20015;-81
2023/03/13 07:03:41;;;;;;;23.92;7.75;;;10.50;99.90;;;;;;6249827;22;20020;-81
2023/03/13 07:06:07;;;;;;;36.13;7.78;;;10.40;99.90;;;;;;6277411;22;20053;-81
2023/03/13 07:08:34;;;;;;;27.70;7.13;;;10.40;99.90;;;;;;6249602;22;20016;-81
2023/03/13 07:11:03;;;;;;;36.30;7.28;;;10.50;99.90;;;;;;6277334;22;20046;-81
2023/03/13 07:13:29;;;;;;;34.50;9.15;;;10.60;99.90;;;;;;6277270;22;20008;-81
2023/03/13 07:15:58;;;;;;;31.58;7.22;;;10.60;99.90;;;;;;6276953;22;20029;-81
2023/03/13 07:18:24;;;;;;;25.50;6.88;;;10.60;99.90;;;;;;6249822;22;20443;-81
2023/03/13 07:20:54;;;;;;;23.25;6.78;;;10.60;99.90;;;;;;6277270;22;20016;-81
2023/03/13 07:23:21;;;;;;;19.17;6.05;;;10.70;99.90;;;;;;6249782;22;20073;-81
2023/03/13 07:26:02;;;;;;;29.42;5.43;;;10.60;99.90;;;;;;6249883;22;20347;-81
2023/03/13 07:28:29;;;;;;;23.42;6.45;;;10.70;99.90;;;;;;6249825;22;20019;-80
2023/03/13 07:31:03;;;;;;;26.77;6.28;;;10.70;99.90;;;;;;6277199;22;20023;-80
2023/03/13 07:33:28;;;;;;;20.92;5.70;;;10.70;99.90;;;;;;6277249;22;20012;-81
2023/03/13 07:35:54;;;;;;;22.00;6.85;;;10.70;99.90;;;;;;6277189;22;20016;-81
2023/03/13 07:38:20;;;;;;;20.45;7.05;;;10.80;99.90;;;;;;6248964;22;20027;-81
2023/03/13 07:40:54;;;;;;;28.92;8.68;;;10.70;99.90;;;;;;6249738;22;20459;-81
2023/03/13 07:43:20;;;;;;;26.70;6.15;;;10.80;99.90;;;;;;6276764;22;20118;-82
2023/03/13 07:45:53;;;;;;;20.13;6.28;;;10.80;99.90;;;;;;6250024;22;20474;-81
2023/03/13 07:48:19;;;;;;;27.00;6.43;;;10.90;99.90;;;;;;6248510;22;20094;-82
2023/03/13 07:50:46;;;;;;;22.15;5.55;;;10.80;99.90;;;;;;6276521;22;20027;-81
2023/03/13 07:53:11;;;;;;;19.75;4.82;;;10.90;99.90;;;;;;6276491;22;20022;-81
2023/03/13 07:55:37;;;;;;;18.75;5.72;;;10.90;99.90;;;;;;6249353;22;20016;-81
2023/03/13 07:58:02;;;;;;;17.83;5.72;;;10.90;99.90;;;;;;6276460;22;20448;-81
2023/03/13 08:00:28;;;;;;;23.02;5.15;;;10.90;99.90;;;;;;6249481;22;20118;-82
2023/03/13 08:02:54;;;;;;;23.17;4.95;;;11.00;99.90;;;;;;6276684;22;20027;-81
2023/03/13 08:05:19;;;;;;;23.42;5.07;;;11.00;99.90;;;;;;6249490;22;20012;-81
2023/03/13 08:07:47;;;;;;;17.77;4.63;;;11.00;99.90;;;;;;6249158;22;20462;-82
2023/03/13 08:10:13;;;;;;;18.08;4.82;;;11.00;99.90;;;;;;6248526;22;20030;-82
2023/03/13 08:12:39;;;;;;;24.45;4.78;;;11.00;99.90;;;;;;6249354;22;20079;-85
2023/03/13 08:15:05;;;;;;;24.88;5.07;;;11.00;99.90;;;;;;6249438;22;20020;-85
2023/03/13 08:17:31;;;;;;;23.20;5.85;;;11.00;99.90;;;;;;6249581;22;20012;-83
2023/03/13 08:19:57;;;;;;;14.35;4.32;;;11.00;99.90;;;;;;6249337;22;20041;-85
2023/03/13 08:22:31;;;;;;;20.77;4.70;;;11.00;99.90;;;;;;6249328;22;20020;-84
2023/03/13 08:24:57;;;;;;;17.25;4.80;;;11.10;99.90;;;;;;6249285;22;20015;-83
2023/03/13 08:27:29;;;;;;;18.50;4.53;;;11.10;99.90;;;;;;6250097;22;20093;-82
2023/03/13 08:29:58;;;;;;;14.73;4.13;;;11.20;99.90;;;;;;6248956;22;20023;-87
2023/03/13 08:32:23;;;;;;;23.48;5.50;;;11.30;99.90;;;;;;6249606;22;20012;-84
2023/03/13 08:34:58;;;;;;;16.92;5.88;;;11.40;99.90;;;;;;6249234;22;20106;-90
2023/03/13 08:37:24;;;;;;;12.25;4.15;;;11.40;99.90;;;;;;6249195;22;20448;-90
2023/03/13 08:39:50;;;;;;;19.17;5.22;;;11.50;99.90;;;;;;6249261;22;20110;-87
2023/03/13 08:42:15;;;;;;;16.75;5.18;;;11.60;99.90;;;;;;6249030;22;20432;-86
2023/03/13 08:44:41;;;;;;;23.17;4.63;;;11.80;99.90;;;;;;6248947;22;20055;-89
2023/03/13 08:47:07;;;;;;;24.77;5.38;;;11.80;99.90;;;;;;6276585;22;20016;-88
2023/03/13 08:49:33;;;;;;;20.23;4.60;;;12.00;99.90;;;;;;6251116;22;20487;-87
2023/03/13 08:51:59;;;;;;;18.13;4.30;;;12.00;99.90;;;;;;6251000;22;20016;-87
2023/03/13 08:54:25;;;;;;;15.70;4.20;;;12.10;99.90;;;;;;6251272;22;20440;-87
2023/03/13 08:56:51;;;;;;;15.68;3.30;;;12.20;99.90;;;;;;6250753;22;20022;-89
2023/03/13 08:59:16;;;;;;;22.73;5.15;;;12.30;99.90;;;;;;6277919;22;20359;-88
2023/03/13 09:01:44;;;;;;;13.45;3.75;;;12.40;99.90;;;;;;6279056;22;20034;-87
2023/03/13 09:04:10;;;;;;;11.52;3.25;;;12.50;99.90;;;;;;6250242;22;20459;-87
2023/03/13 09:06:38;;;;;;;14.88;3.08;;;12.60;99.90;;;;;;6250691;22;20057;-87
2023/03/13 09:09:08;;;;;;;13.52;3.00;;;12.70;99.90;;;;;;6250514;22;20016;-86
2023/03/13 09:11:36;;;;;;;19.08;3.40;;;12.70;99.90;;;;;;6277821;22;20521;-87
2023/03/13 09:14:02;;;;;;;11.43;3.17;;;12.70;99.90;;;;;;6250828;22;20014;-86
2023/03/13 09:16:29;;;;;;;14.88;3.30;;;12.60;99.90;;;;;;6250662;22;20098;-86
2023/03/13 09:18:56;;;;;;;10.63;3.00;;;12.50;99.90;;;;;;6251085;22;20027;-85
2023/03/13 09:21:26;;;;;;;15.63;3.95;;;12.50;99.90;;;;;;6250785;22;20019;-85
2023/03/13 09:23:52;;;;;;;15.73;3.25;;;12.50;99.90;;;;;;6250799;22;20027;-87
2023/03/13 09:26:19;;;;;;;16.35;3.58;;;12.40;99.90;;;;;;6250645;22;20016;-85
2023/03/13 09:28:45;;;;;;;17.25;3.47;;;12.40;99.90;;;;;;6249532;22;20427;-84
2023/03/13 09:31:13;;;;;;;16.02;4.30;;;12.40;99.90;;;;;;6278115;22;20057;-85
2023/03/13 09:33:40;;;;;;;16.98;4.00;;;12.30;99.90;;;;;;6250822;22;20007;-85
2023/03/13 09:36:07;;;;;;;14.60;3.47;;;12.30;99.90;;;;;;6250428;22;20050;-85
2023/03/13 09:38:32;;;;;;;14.50;4.03;;;12.20;99.90;;;;;;6250523;22;20027;-85
2023/03/13 09:41:15;;;;;;;18.15;3.88;;;12.20;99.90;;;;;;6277972;22;20019;-87
2023/03/13 09:44:18;;;;;;;17.20;4.03;;;12.10;99.90;;;;;;6250602;22;20120;-86
2023/03/13 09:46:44;;;;;;;23.35;5.78;;;12.00;99.90;;;;;;6250621;22;20344;-85
2023/03/13 09:49:18;;;;;;;26.05;4.72;;;12.00;99.90;;;;;;6250482;22;20452;-84
2023/03/13 09:51:49;;;;;;;21.65;4.55;;;12.00;99.90;;;;;;6250466;22;20019;-85
2023/03/13 09:54:20;;;;;;;;;;;12.00;99.90;;;;;;6250851;22;20070;-88
2023/03/13 09:57:13;;;;;;;17.38;4.53;;;12.10;99.90;;;;;;6250373;22;19941;-87
2023/03/13 09:59:38;;;;;;;22.75;5.47;;;12.10;99.90;;;;;;6250088;22;20069;-86
2023/03/13 10:02:29;;;;;;;17.73;4.40;;;12.20;99.90;;;;;;6277467;22;20027;-86
2023/03/13 10:05:07;;;;;;;17.52;4.40;;;12.30;99.90;;;;;;6250392;22;20447;-85
2023/03/13 10:07:33;;;;;;;21.25;5.90;;;12.40;99.90;;;;;;6250186;22;20015;-86
2023/03/13 10:10:02;;;;;;;17.77;5.18;;;12.40;99.90;;;;;;6277484;22;20091;-86
2023/03/13 10:12:34;;;;;;;24.05;5.32;;;12.60;99.90;;;;;;6250235;22;20020;-86
2023/03/13 10:15:17;;;;;;;22.80;4.40;;;12.70;99.90;;;;;;6250279;22;20016;-85
2023/03/13 10:17:42;;;;;;;19.25;4.55;;;12.80;99.90;;;;;;6250150;22;20440;-85
2023/03/13 10:20:23;;;;;;;24.23;4.20;;;13.00;99.90;;;;;;6277281;22;20026;-86
2023/03/13 10:23:01;;;;;;;21.63;3.85;;;13.10;99.90;;;;;;6250041;22;20387;-85
2023/03/13 10:25:35;;;;;;;17.30;4.45;;;13.20;99.90;;;;;;6277231;22;20011;-85
2023/03/13 10:28:01;;;;;;;23.02;5.15;;;13.30;99.90;;;;;;6277711;22;20008;-85
2023/03/13 10:30:37;;;;;;;24.77;3.65;;;13.50;99.90;;;;;;6277154;22;20561;-84
2023/03/13 10:33:06;;;;;;;17.90;3.95;;;13.40;99.90;;;;;;6250136;22;20016;-84
2023/03/13 10:35:34;;;;;;;28.23;5.50;;;13.40;99.90;;;;;;6250213;22;20026;-84
2023/03/13 10:38:12;;;;;;;17.08;3.95;;;13.40;99.90;;;;;;6249882;22;20016;-83
2023/03/13 10:40:39;;;;;;;23.58;4.00;;;13.40;99.90;;;;;;6277408;22;20016;-83
2023/03/13 10:43:17;;;;;;;24.52;4.00;;;13.50;99.90;;;;;;6250365;22;20447;-83
2023/03/13 10:45:43;;;;;;;20.27;4.35;;;13.60;99.90;;;;;;6250061;22;20471;-85
2023/03/13 10:48:17;;;;;;;24.50;4.13;;;13.80;99.90;;;;;;6248811;22;20012;-81
2023/03/13 10:50:45;;;;;;;24.25;5.00;;;13.90;99.90;;;;;;6274740;22;20131;-81
2023/03/13 10:53:23;;;;;;;28.38;4.82;;;13.90;99.90;;;;;;6248993;22;20043;-81
2023/03/13 10:55:53;;;;;;;20.90;4.32;;;14.00;99.90;;;;;;6249040;22;20020;-81
2023/03/13 10:58:29;;;;;;;26.63;4.78;;;14.00;99.90;;;;;;6250087;22;20022;-81
2023/03/13 11:01:15;;;;;;;22.08;3.88;;;14.10;99.90;;;;;;6277390;22;20065;-81
2023/03/13 11:03:42;;;;;;;25.05;4.68;;;14.20;99.90;;;;;;6249832;22;20015;-83
2023/03/13 11:06:23;;;;;;;17.33;3.85;;;14.20;99.90;;;;;;6276840;22;20313;-84
2023/03/13 11:08:48;;;;;;;21.33;4.45;;;14.30;99.90;;;;;;6249571;22;20029;-82
2023/03/13 11:11:19;;;;;;;21.60;4.07;;;14.30;99.90;;;;;;6276687;22;20011;-82
2023/03/13 11:13:45;;;;;;;21.67;4.97;;;14.30;99.90;;;;;;6249689;22;20027;-86
2023/03/13 11:16:22;;;;;;;22.70;5.28;;;14.40;99.90;;;;;;6277164;22;20011;-80
2023/03/13 11:19:12;;;;;;;20.88;4.07;;;14.30;99.90;;;;;;6276602;22;20418;-82
2023/03/13 11:22:02;;;;;;;21.85;4.18;;;14.20;99.90;;;;;;6277071;22;20043;-81
2023/03/13 11:24:48;;;;;;;21.70;4.00;;;14.20;99.90;;;;;;6276842;22;20383;-81
2023/03/13 11:27:26;;;;;;;16.98;3.67;;;14.10;99.90;;;;;;6277037;22;20051;-80
2023/03/13 11:30:06;;;;;;;20.25;4.25;;;13.90;99.90;;;;;;6277068;22;20375;-80
2023/03/13 11:32:45;;;;;;;17.67;4.15;;;13.90;99.90;;;;;;6276706;22;20019;-81
2023/03/13 11:35:48;;;;;;;14.70;3.10;;;13.90;99.90;;;;;;6249608;22;20008;-81
2023/03/13 11:38:39;;;;;;;15.73;3.38;;;13.80;99.90;;;;;;6249266;22;20459;-81
2023/03/13 11:41:34;;;;;;;22.85;4.20;;;13.80;99.90;;;;;;6276614;22;20031;-88
2023/03/13 11:44:25;;;;;;;17.02;3.10;;;13.70;99.90;;;;;;6276624;22;20336;-80
2023/03/13 11:47:09;;;;;;;22.30;3.60;;;13.70;99.90;;;;;;6249521;22;20428;-80
2023/03/13 11:49:57;;;;;;;25.48;5.30;;;13.70;99.90;;;;;;6249606;22;20031;-80
2023/03/13 11:52:57;;;;;;;16.65;3.35;;;13.70;99.90;;;;;;6249508;22;20012;-80
2023/03/13 11:56:00;;;;;;;25.33;5.00;;;13.70;99.90;;;;;;6249523;22;20062;-81
2023/03/13 11:59:17;;;;;;;28.88;4.63;;;13.80;99.90;;;;;;6249377;22;20024;-80
2023/03/13 12:01:52;;;;;;;21.80;3.63;;;14.00;99.90;;;;;;6204340;22;20123;-80
2023/03/13 12:04:26;;;;;;;30.77;5.13;;;14.10;99.90;;;;;;6276893;22;20054;-80
2023/03/13 12:07:02;;;;;;;20.80;3.70;;;14.10;99.90;;;;;;6276789;22;20014;-80
2023/03/13 12:09:43;;;;;;;23.15;4.70;;;14.00;99.90;;;;;;6276443;22;20347;-83
2023/03/13 12:12:15;;;;;;;28.00;3.75;;;14.00;99.90;;;;;;6249447;22;20019;-83
2023/03/13 12:15:20;;;;;;;22.73;4.15;;;13.90;99.90;;;;;;6249499;22;20012;-83
2023/03/13 12:17:52;;;;;;;21.25;4.05;;;13.70;99.90;;;;;;6233113;22;20069;-82
2023/03/13 12:20:31;;;;;;;26.00;5.23;;;13.80;99.90;;;;;;6249559;22;20051;-83
2023/03/13 12:22:57;;;;;;;24.83;3.65;;;13.80;99.90;;;;;;6249689;22;20378;-82
2023/03/13 12:25:31;;;;;;;28.23;5.68;;;13.80;99.90;;;;;;6251362;22;20051;-83
2023/03/13 12:28:24;;;;;;;21.50;3.45;;;13.80;99.90;;;;;;6251359;22;20016;-82
2023/03/13 12:31:02;;;;;;;19.77;4.50;;;13.80;99.90;;;;;;6265821;22;20093;-83
2023/03/13 12:33:43;;;;;;;21.30;3.63;;;13.90;99.90;;;;;;6251259;22;20065;-83
2023/03/13 12:36:18;;;;;;;20.85;3.53;;;14.00;99.90;;;;;;6278705;22;20145;-83
2023/03/13 12:38:57;;;;;;;21.90;4.00;;;14.10;99.90;;;;;;6251103;22;20030;-82
2023/03/13 12:41:43;;;;;;;18.02;4.47;;;14.00;99.90;;;;;;6278622;22;20011;-82
2023/03/13 12:44:16;;;;;;;24.30;3.88;;;14.10;99.90;;;;;;6251142;22;20055;-83
2023/03/13 12:46:46;;;;;;;;;;;14.10;99.90;;;;;;6251652;22;20047;-82
2023/03/13 12:49:12;;;;;;;23.05;4.43;;;14.10;99.90;;;;;;6251081;22;19946;-83
2023/03/13 12:52:01;;;;;;;22.30;3.40;;;14.10;99.90;;;;;;6251184;22;20340;-83
2023/03/13 12:54:35;;;;;;;30.45;5.38;;;14.10;99.90;;;;;;6278313;22;20030;-82
2023/03/13 12:57:21;;;;;;;22.92;3.40;;;14.10;99.90;;;;;;6251125;22;20015;-83